createdAt,value
2018-06-29T00:01:26.421Z,20.60
2018-06-29T03:02:45.285Z,18.60
2018-06-29T03:05:13.692Z,18.70
2018-06-29T03:07:41.994Z,18.60
2018-06-29T03:10:10.362Z,18.40
2018-06-29T03:12:39.290Z,18.00
2018-06-29T03:15:22.903Z,18.10
2018-06-29T03:17:51.347Z,17.80
2018-06-29T03:20:19.645Z,17.80
2018-06-29T03:22:47.978Z,17.70
2018-06-29T03:25:16.365Z,17.80
2018-06-29T03:27:44.689Z,17.80
2018-06-29T03:30:13.062Z,17.60
2018-06-29T03:32:41.385Z,17.60
2018-06-29T03:37:37.841Z,17.80
2018-06-29T03:40:06.220Z,17.60
2018-06-29T03:42:34.533Z,17.50
2018-06-29T03:45:03.005Z,17.50
2018-06-29T03:47:31.339Z,17.30
2018-06-29T03:49:59.665Z,17.50
2018-06-29T03:52:28.006Z,17.50
2018-06-29T03:54:56.381Z,17.50
2018-06-29T03:57:24.796Z,17.50
2018-06-29T03:59:53.957Z,17.70
2018-06-29T04:02:22.262Z,17.80
2018-06-29T04:04:50.593Z,17.70
2018-06-29T04:07:18.958Z,17.80
2018-06-29T04:09:47.307Z,17.60
2018-06-29T04:12:15.689Z,17.60
2018-06-29T04:14:44.029Z,17.60
2018-06-29T04:17:12.375Z,17.60
2018-06-29T04:19:40.699Z,17.90
2018-06-29T04:22:09.005Z,17.60
2018-06-29T04:24:37.429Z,17.60
2018-06-29T04:27:05.746Z,18.10
2018-06-29T04:29:34.171Z,18.30
2018-06-29T04:32:02.514Z,18.30
2018-06-29T04:34:30.906Z,18.00
2018-06-29T04:36:59.273Z,18.00
2018-06-29T04:39:27.619Z,18.10
2018-06-29T04:41:56.017Z,18.00
2018-06-29T04:44:24.434Z,18.00
2018-06-29T04:46:52.822Z,18.40
2018-06-29T04:49:21.195Z,18.60
2018-06-29T04:51:49.472Z,18.80
2018-06-29T04:54:17.815Z,19.10
2018-06-29T04:56:46.161Z,19.10
2018-06-29T04:59:14.529Z,19.00
2018-06-29T05:01:42.931Z,19.00
2018-06-29T05:04:11.559Z,18.90
2018-06-29T05:06:40.050Z,18.90
2018-06-29T05:09:08.941Z,18.90
2018-06-29T05:11:37.742Z,19.20
2018-06-29T05:14:06.634Z,19.40
2018-06-29T05:16:35.097Z,19.40
2018-06-29T05:19:03.489Z,19.30
2018-06-29T05:21:32.062Z,19.50
2018-06-29T05:24:00.412Z,19.70
2018-06-29T05:26:28.777Z,19.50
2018-06-29T05:28:57.136Z,19.50
2018-06-29T05:31:25.508Z,19.70
2018-06-29T05:33:53.831Z,19.80
2018-06-29T05:36:22.229Z,19.80
2018-06-29T05:38:50.549Z,19.70
2018-06-29T05:41:18.936Z,19.80
2018-06-29T05:43:47.270Z,19.70
2018-06-29T05:46:15.645Z,19.80
2018-06-29T05:48:43.937Z,19.80
2018-06-29T05:51:12.421Z,19.90
2018-06-29T05:53:40.783Z,20.00
2018-06-29T05:56:09.209Z,20.10
2018-06-29T05:58:37.561Z,20.30
2018-06-29T06:01:09.022Z,20.40
2018-06-29T06:03:37.386Z,20.30
2018-06-29T06:06:06.172Z,20.30
2018-06-29T06:08:34.545Z,20.20
2018-06-29T06:11:02.941Z,20.40
2018-06-29T06:13:31.399Z,20.40
2018-06-29T06:16:00.523Z,20.30
2018-06-29T06:18:29.012Z,20.40
2018-06-29T06:20:57.363Z,20.60
2018-06-29T06:23:25.878Z,20.70
2018-06-29T06:25:54.325Z,20.50
2018-06-29T06:28:22.729Z,20.50
2018-06-29T06:30:51.115Z,20.60
2018-06-29T06:33:19.488Z,20.70
2018-06-29T06:35:47.917Z,20.80
2018-06-29T08:46:16.089Z,25.60
2018-06-29T08:48:56.816Z,25.60
2018-06-29T08:51:25.162Z,25.50
2018-06-29T08:53:53.474Z,25.50
2018-06-29T08:56:21.805Z,25.60
2018-06-29T08:58:50.274Z,25.80
2018-06-29T09:01:18.633Z,25.90
2018-06-29T09:03:47.033Z,25.90
2018-06-29T09:06:15.541Z,26.00
2018-06-29T09:08:43.983Z,26.10
2018-06-29T09:11:12.355Z,26.30
2018-06-29T09:13:40.758Z,26.10
2018-06-29T09:16:09.210Z,26.00
2018-06-29T09:18:37.666Z,26.10
2018-06-29T09:21:06.011Z,26.20
2018-06-29T09:23:34.310Z,26.20
2018-06-29T09:26:02.779Z,26.30
2018-06-29T09:28:31.091Z,26.60
2018-06-29T09:30:59.463Z,26.60
2018-06-29T09:33:27.858Z,26.40
2018-06-29T09:35:56.245Z,26.50
2018-06-29T09:38:24.622Z,26.60
2018-06-29T09:40:53.158Z,27.00
2018-06-29T09:43:21.573Z,27.00
2018-06-29T09:45:50.121Z,26.90
2018-06-29T09:48:18.553Z,27.20
2018-06-29T09:50:46.935Z,27.20
2018-06-29T09:53:15.421Z,26.90
2018-06-29T09:55:43.722Z,26.80
2018-06-29T09:58:12.068Z,27.00
2018-06-29T10:00:40.388Z,27.10
2018-06-29T10:03:08.741Z,26.80
2018-06-29T10:05:37.113Z,27.20
2018-06-29T10:08:05.624Z,27.00
2018-06-29T10:10:33.999Z,27.10
2018-06-29T10:15:30.713Z,27.40
2018-06-29T10:17:59.174Z,27.30
2018-06-29T10:20:27.491Z,27.10
2018-06-29T10:22:55.883Z,26.90
2018-06-29T10:25:24.276Z,27.10
2018-06-29T10:27:52.618Z,27.30
2018-06-29T10:30:21.014Z,27.50
2018-06-29T10:32:49.518Z,27.40
2018-06-29T10:35:17.957Z,27.40
2018-06-29T10:37:46.366Z,27.30
2018-06-29T10:40:15.344Z,27.30
2018-06-29T10:42:43.696Z,27.30
2018-06-29T10:45:12.108Z,27.40
2018-06-29T10:47:40.582Z,27.60
2018-06-29T10:50:09.178Z,27.60
2018-06-29T10:52:37.625Z,27.60
2018-06-29T10:57:34.217Z,27.90
2018-06-29T11:00:02.671Z,27.90
2018-06-29T11:02:31.165Z,28.20
2018-06-29T11:05:00.163Z,28.10
2018-06-29T11:07:30.707Z,28.10
2018-06-29T11:09:59.258Z,28.30
2018-06-29T11:12:27.738Z,28.20
2018-06-29T11:14:56.173Z,28.30
2018-06-29T11:17:24.533Z,28.20
2018-06-29T11:19:53.164Z,28.20
2018-06-29T11:22:21.724Z,28.50
2018-06-29T11:24:50.135Z,28.60
2018-06-29T11:27:18.534Z,28.30
2018-06-29T11:29:47.089Z,28.40
2018-06-29T11:32:15.615Z,28.70
2018-06-29T11:34:44.104Z,28.60
2018-06-29T11:37:12.763Z,28.70
2018-06-29T11:39:41.355Z,28.70
2018-06-29T11:42:09.805Z,29.20
2018-06-29T11:44:38.522Z,29.10
2018-06-29T11:47:07.035Z,29.00
2018-06-29T11:49:35.433Z,29.10
2018-06-29T11:52:03.877Z,29.10
2018-06-29T11:54:32.294Z,29.00
2018-06-29T11:57:01.215Z,29.00
2018-06-29T11:59:29.633Z,29.00
2018-06-29T12:01:57.992Z,28.90
2018-06-29T12:04:26.475Z,29.20
2018-06-29T12:06:55.372Z,29.20
2018-06-29T12:09:23.772Z,28.90
2018-06-29T12:11:52.253Z,29.20
2018-06-29T12:14:23.914Z,29.50
2018-06-29T12:16:52.409Z,29.70
2018-06-29T12:19:21.001Z,29.60
2018-06-29T12:21:49.498Z,29.40
2018-06-29T12:24:17.937Z,29.20
2018-06-29T12:26:46.509Z,29.30
2018-06-29T12:29:15.086Z,29.10
2018-06-29T12:31:49.210Z,29.50
2018-06-29T12:34:17.601Z,29.50
2018-06-29T12:36:46.176Z,29.40
2018-06-29T12:39:15.354Z,29.80
2018-06-29T12:41:43.912Z,30.00
2018-06-29T12:44:12.307Z,30.10
2018-06-29T12:46:44.112Z,30.00
2018-06-29T12:49:12.661Z,30.20
2018-06-29T12:51:41.380Z,30.20
2018-06-29T20:18:48.052Z,24.90
2018-06-29T20:21:16.396Z,24.80
2018-06-29T20:23:44.769Z,24.80
2018-06-29T20:26:13.161Z,24.60
2018-06-29T20:28:42.585Z,24.50
2018-06-29T20:31:11.019Z,24.40
2018-06-29T20:33:39.990Z,24.40
2018-06-29T20:36:08.717Z,24.30
2018-06-29T20:38:37.547Z,24.20
2018-06-29T20:41:05.893Z,24.10
2018-06-29T20:43:34.262Z,24.10
2018-06-29T20:46:02.694Z,24.10
2018-06-29T20:48:31.278Z,23.90
2018-06-29T20:51:00.777Z,23.70
2018-06-29T20:53:29.163Z,23.50
2018-06-29T20:55:57.657Z,23.30
2018-06-29T20:58:26.133Z,23.20
2018-06-29T21:00:54.613Z,23.20
2018-06-29T21:03:23.369Z,23.10
2018-06-29T21:05:51.884Z,22.90
2018-06-29T21:08:20.594Z,23.00
2018-06-29T21:10:49.074Z,22.90
2018-06-29T21:13:17.531Z,23.00
2018-06-29T21:15:45.903Z,23.10
2018-06-29T21:18:14.570Z,23.00
2018-06-29T21:20:42.928Z,22.80
2018-06-29T21:23:11.654Z,22.80
2018-06-29T21:25:40.209Z,22.80
2018-06-29T21:28:08.677Z,22.80
2018-06-29T21:30:37.382Z,23.00
2018-06-29T21:33:05.843Z,23.10
2018-06-29T21:35:34.394Z,23.20
2018-06-29T21:38:02.770Z,23.20
2018-06-29T21:40:32.682Z,23.10
2018-06-29T21:43:01.038Z,23.20
2018-06-29T21:45:29.765Z,23.10
2018-06-29T21:47:58.314Z,23.10
2018-06-29T21:50:27.277Z,23.00
2018-06-29T21:52:55.819Z,22.90
2018-06-29T21:55:24.993Z,22.70
2018-06-29T21:57:53.486Z,22.70
2018-06-29T22:00:21.876Z,22.70
2018-06-29T22:02:50.986Z,22.80
2018-06-29T22:05:19.355Z,22.80
2018-06-29T22:07:47.798Z,22.70
2018-06-29T22:10:16.228Z,22.70
2018-06-29T22:12:45.183Z,22.50
2018-06-29T22:15:23.922Z,22.20
2018-06-29T22:17:52.767Z,21.90
2018-06-29T22:20:21.483Z,21.90
2018-06-29T22:22:49.951Z,21.70
2018-06-29T22:25:18.637Z,21.90
2018-06-29T22:27:47.210Z,21.90
2018-06-29T22:30:15.637Z,21.70
2018-06-29T22:32:44.006Z,21.60
2018-06-29T22:35:12.397Z,21.30
2018-06-29T22:37:42.024Z,21.30
2018-06-29T22:40:10.445Z,21.40
2018-06-29T22:42:40.355Z,21.40
2018-06-29T22:45:08.957Z,21.30
2018-06-29T22:50:30.074Z,21.30
2018-06-29T22:52:58.437Z,21.50
2018-06-29T22:55:26.854Z,21.50
2018-06-29T22:57:55.225Z,21.30
2018-06-29T23:00:23.610Z,21.10
2018-06-29T23:02:53.667Z,20.90
2018-06-29T23:05:22.022Z,20.80
2018-06-29T23:07:50.393Z,21.00
2018-06-29T23:10:18.769Z,20.90
2018-06-29T23:12:47.113Z,20.90
2018-06-29T23:15:15.460Z,20.90
2018-06-29T23:17:43.852Z,20.80
2018-06-29T23:20:12.209Z,20.60
2018-06-29T23:22:40.569Z,20.70
2018-06-29T23:25:08.889Z,20.60
2018-06-29T23:27:37.314Z,20.70
2018-06-29T23:30:05.751Z,20.60
2018-06-29T23:32:34.111Z,20.50
2018-06-29T23:35:02.461Z,20.50
2018-06-29T23:37:30.819Z,20.40
2018-06-29T23:39:59.193Z,20.40
2018-06-29T23:42:27.590Z,20.30
2018-06-29T23:44:56.007Z,20.40
2018-06-29T23:47:24.325Z,20.50
2018-06-29T23:49:52.717Z,20.30
2018-06-29T23:52:21.118Z,20.20
2018-06-29T23:54:49.467Z,20.10
2018-06-29T23:57:18.402Z,20.00
2018-06-29T23:59:46.773Z,20.10
